sensor_id;sensor_type;location;lat;lon;timestamp;P1;durP1;ratioP1;P2;durP2;ratioP2
33505;SDS011;19843;51.040;13.782;2023-05-21T00:02:18;13.98;;;7.20;;
33505;SDS011;19843;51.040;13.782;2023-05-21T00:04:46;10.07;;;6.50;;
33505;SDS011;19843;51.040;13.782;2023-05-21T00:07:14;10.10;;;6.82;;
33505;SDS011;19843;51.040;13.782;2023-05-21T00:09:42;11.93;;;7.50;;
33505;SDS011;19843;51.040;13.782;2023-05-21T00:12:10;11.27;;;7.65;;
33505;SDS011;19843;51.040;13.782;2023-05-21T00:14:37;10.85;;;6.78;;
33505;SDS011;19843;51.040;13.782;2023-05-21T00:17:05;10.00;;;6.47;;
33505;SDS011;19843;51.040;13.782;2023-05-21T00:19:33;10.75;;;6.75;;
33505;SDS011;19843;51.040;13.782;2023-05-21T00:22:01;14.10;;;8.20;;
33505;SDS011;19843;51.040;13.782;2023-05-21T00:24:28;11.82;;;6.60;;
33505;SDS011;19843;51.040;13.782;2023-05-21T00:26:57;11.38;;;7.43;;
33505;SDS011;19843;51.040;13.782;2023-05-21T00:29:25;12.75;;;7.65;;
33505;SDS011;19843;51.040;13.782;2023-05-21T00:31:55;10.23;;;7.05;;
33505;SDS011;19843;51.040;13.782;2023-05-21T00:34:22;10.73;;;7.03;;
33505;SDS011;19843;51.040;13.782;2023-05-21T00:36:50;12.05;;;6.65;;
33505;SDS011;19843;51.040;13.782;2023-05-21T00:39:20;13.25;;;7.07;;
33505;SDS011;19843;51.040;13.782;2023-05-21T00:41:48;10.13;;;6.35;;
33505;SDS011;19843;51.040;13.782;2023-05-21T00:44:17;12.50;;;7.88;;
33505;SDS011;19843;51.040;13.782;2023-05-21T00:46:45;10.93;;;7.53;;
33505;SDS011;19843;51.040;13.782;2023-05-21T00:49:14;13.40;;;7.72;;
33505;SDS011;19843;51.040;13.782;2023-05-21T00:51:41;10.85;;;6.85;;
33505;SDS011;19843;51.040;13.782;2023-05-21T00:54:10;10.52;;;7.38;;
33505;SDS011;19843;51.040;13.782;2023-05-21T00:56:38;12.27;;;8.32;;
33505;SDS011;19843;51.040;13.782;2023-05-21T00:59:05;11.35;;;6.15;;
33505;SDS011;19843;51.040;13.782;2023-05-21T01:01:34;10.55;;;6.63;;
33505;SDS011;19843;51.040;13.782;2023-05-21T01:04:02;10.85;;;6.20;;
33505;SDS011;19843;51.040;13.782;2023-05-21T01:06:30;11.02;;;7.90;;
33505;SDS011;19843;51.040;13.782;2023-05-21T01:09:00;11.52;;;6.72;;
33505;SDS011;19843;51.040;13.782;2023-05-21T01:11:33;13.20;;;7.85;;
33505;SDS011;19843;51.040;13.782;2023-05-21T01:14:05;9.60;;;6.63;;
33505;SDS011;19843;51.040;13.782;2023-05-21T01:16:36;11.82;;;7.32;;
33505;SDS011;19843;51.040;13.782;2023-05-21T01:19:06;12.52;;;7.53;;
33505;SDS011;19843;51.040;13.782;2023-05-21T01:21:38;10.85;;;6.85;;
33505;SDS011;19843;51.040;13.782;2023-05-21T01:24:09;12.82;;;7.60;;
33505;SDS011;19843;51.040;13.782;2023-05-21T01:26:37;11.05;;;7.68;;
33505;SDS011;19843;51.040;13.782;2023-05-21T01:29:06;11.10;;;8.05;;
33505;SDS011;19843;51.040;13.782;2023-05-21T01:31:41;12.85;;;7.40;;
33505;SDS011;19843;51.040;13.782;2023-05-21T01:34:19;14.18;;;8.95;;
33505;SDS011;19843;51.040;13.782;2023-05-21T01:36:52;11.88;;;7.75;;
33505;SDS011;19843;51.040;13.782;2023-05-21T01:39:28;12.95;;;8.55;;
33505;SDS011;19843;51.040;13.782;2023-05-21T01:42:00;12.60;;;7.90;;
33505;SDS011;19843;51.040;13.782;2023-05-21T01:44:30;11.05;;;7.18;;
33505;SDS011;19843;51.040;13.782;2023-05-21T01:46:59;12.40;;;6.82;;
33505;SDS011;19843;51.040;13.782;2023-05-21T01:49:29;13.60;;;8.15;;
33505;SDS011;19843;51.040;13.782;2023-05-21T01:51:57;10.80;;;8.23;;
33505;SDS011;19843;51.040;13.782;2023-05-21T01:54:24;10.82;;;6.93;;
33505;SDS011;19843;51.040;13.782;2023-05-21T01:56:53;12.70;;;7.82;;
33505;SDS011;19843;51.040;13.782;2023-05-21T01:59:21;11.25;;;7.43;;
33505;SDS011;19843;51.040;13.782;2023-05-21T02:01:48;10.90;;;7.53;;
33505;SDS011;19843;51.040;13.782;2023-05-21T02:04:16;10.05;;;7.70;;
33505;SDS011;19843;51.040;13.782;2023-05-21T02:06:43;12.02;;;7.63;;
33505;SDS011;19843;51.040;13.782;2023-05-21T02:09:11;11.98;;;8.05;;
33505;SDS011;19843;51.040;13.782;2023-05-21T02:11:38;12.25;;;6.70;;
33505;SDS011;19843;51.040;13.782;2023-05-21T02:14:07;11.38;;;8.18;;
33505;SDS011;19843;51.040;13.782;2023-05-21T02:16:35;10.10;;;7.03;;
33505;SDS011;19843;51.040;13.782;2023-05-21T02:19:03;12.43;;;7.38;;
33505;SDS011;19843;51.040;13.782;2023-05-21T02:21:31;11.10;;;7.88;;
33505;SDS011;19843;51.040;13.782;2023-05-21T02:23:59;11.13;;;7.53;;
33505;SDS011;19843;51.040;13.782;2023-05-21T02:26:26;13.43;;;9.05;;
33505;SDS011;19843;51.040;13.782;2023-05-21T02:28:54;14.43;;;10.05;;
33505;SDS011;19843;51.040;13.782;2023-05-21T02:31:23;13.30;;;7.85;;
33505;SDS011;19843;51.040;13.782;2023-05-21T02:33:50;11.25;;;7.63;;
33505;SDS011;19843;51.040;13.782;2023-05-21T02:36:18;12.18;;;7.63;;
33505;SDS011;19843;51.040;13.782;2023-05-21T02:38:45;11.32;;;7.28;;
33505;SDS011;19843;51.040;13.782;2023-05-21T02:41:13;13.07;;;8.20;;
33505;SDS011;19843;51.040;13.782;2023-05-21T02:43:40;17.83;;;7.95;;
33505;SDS011;19843;51.040;13.782;2023-05-21T02:46:07;11.02;;;7.45;;
33505;SDS011;19843;51.040;13.782;2023-05-21T02:48:36;11.45;;;7.63;;
33505;SDS011;19843;51.040;13.782;2023-05-21T02:51:04;13.05;;;7.97;;
33505;SDS011;19843;51.040;13.782;2023-05-21T02:53:32;10.50;;;7.55;;
33505;SDS011;19843;51.040;13.782;2023-05-21T02:55:59;11.75;;;7.90;;
33505;SDS011;19843;51.040;13.782;2023-05-21T02:58:27;11.40;;;7.70;;
33505;SDS011;19843;51.040;13.782;2023-05-21T03:00:54;11.02;;;7.68;;
33505;SDS011;19843;51.040;13.782;2023-05-21T03:03:21;17.83;;;9.10;;
33505;SDS011;19843;51.040;13.782;2023-05-21T03:05:50;9.70;;;7.47;;
33505;SDS011;19843;51.040;13.782;2023-05-21T03:08:18;11.05;;;7.60;;
33505;SDS011;19843;51.040;13.782;2023-05-21T03:10:46;14.55;;;9.38;;
33505;SDS011;19843;51.040;13.782;2023-05-21T03:13:13;11.73;;;7.80;;
33505;SDS011;19843;51.040;13.782;2023-05-21T03:15:41;12.80;;;8.27;;
33505;SDS011;19843;51.040;13.782;2023-05-21T03:18:09;13.98;;;8.00;;
33505;SDS011;19843;51.040;13.782;2023-05-21T03:20:36;13.10;;;9.10;;
33505;SDS011;19843;51.040;13.782;2023-05-21T03:23:10;11.10;;;7.93;;
33505;SDS011;19843;51.040;13.782;2023-05-21T03:25:41;10.18;;;7.53;;
33505;SDS011;19843;51.040;13.782;2023-05-21T03:28:10;11.63;;;8.02;;
33505;SDS011;19843;51.040;13.782;2023-05-21T03:30:38;13.18;;;7.85;;
33505;SDS011;19843;51.040;13.782;2023-05-21T03:33:05;12.48;;;8.40;;
33505;SDS011;19843;51.040;13.782;2023-05-21T03:35:33;11.23;;;8.15;;
33505;SDS011;19843;51.040;13.782;2023-05-21T03:38:01;13.23;;;8.15;;
33505;SDS011;19843;51.040;13.782;2023-05-21T03:40:30;16.40;;;8.20;;
33505;SDS011;19843;51.040;13.782;2023-05-21T03:42:57;11.02;;;7.32;;
33505;SDS011;19843;51.040;13.782;2023-05-21T03:45:25;14.52;;;8.13;;
33505;SDS011;19843;51.040;13.782;2023-05-21T03:47:52;12.68;;;7.85;;
33505;SDS011;19843;51.040;13.782;2023-05-21T03:50:20;12.02;;;8.40;;
33505;SDS011;19843;51.040;13.782;2023-05-21T03:52:47;12.80;;;8.57;;
33505;SDS011;19843;51.040;13.782;2023-05-21T03:55:14;14.93;;;7.90;;
33505;SDS011;19843;51.040;13.782;2023-05-21T03:57:43;11.70;;;7.35;;
33505;SDS011;19843;51.040;13.782;2023-05-21T04:00:11;15.52;;;8.57;;
33505;SDS011;19843;51.040;13.782;2023-05-21T04:02:39;14.70;;;9.13;;
33505;SDS011;19843;51.040;13.782;2023-05-21T04:05:06;14.93;;;8.82;;
33505;SDS011;19843;51.040;13.782;2023-05-21T04:07:34;16.33;;;9.85;;
33505;SDS011;19843;51.040;13.782;2023-05-21T04:10:03;13.80;;;8.50;;
33505;SDS011;19843;51.040;13.782;2023-05-21T04:12:32;12.55;;;8.13;;
33505;SDS011;19843;51.040;13.782;2023-05-21T04:15:00;19.20;;;8.13;;
33505;SDS011;19843;51.040;13.782;2023-05-21T04:17:28;12.93;;;8.27;;
33505;SDS011;19843;51.040;13.782;2023-05-21T04:19:55;18.80;;;9.45;;
33505;SDS011;19843;51.040;13.782;2023-05-21T04:22:23;12.35;;;8.52;;
33505;SDS011;19843;51.040;13.782;2023-05-21T04:24:51;10.27;;;7.22;;
33505;SDS011;19843;51.040;13.782;2023-05-21T04:27:19;12.32;;;7.70;;
33505;SDS011;19843;51.040;13.782;2023-05-21T04:29:48;13.10;;;7.60;;
33505;SDS011;19843;51.040;13.782;2023-05-21T04:32:17;11.27;;;7.93;;
33505;SDS011;19843;51.040;13.782;2023-05-21T04:34:45;13.00;;;7.68;;
33505;SDS011;19843;51.040;13.782;2023-05-21T04:37:12;12.05;;;7.30;;
33505;SDS011;19843;51.040;13.782;2023-05-21T04:39:42;9.38;;;7.40;;
33505;SDS011;19843;51.040;13.782;2023-05-21T04:42:10;11.40;;;7.43;;
33505;SDS011;19843;51.040;13.782;2023-05-21T04:44:37;13.05;;;8.50;;
33505;SDS011;19843;51.040;13.782;2023-05-21T04:47:05;12.30;;;7.97;;
33505;SDS011;19843;51.040;13.782;2023-05-21T04:49:34;13.15;;;7.07;;
33505;SDS011;19843;51.040;13.782;2023-05-21T04:52:02;10.65;;;8.27;;
33505;SDS011;19843;51.040;13.782;2023-05-21T04:54:30;11.55;;;7.65;;
33505;SDS011;19843;51.040;13.782;2023-05-21T04:56:57;12.68;;;8.18;;
33505;SDS011;19843;51.040;13.782;2023-05-21T04:59:25;12.57;;;8.60;;
33505;SDS011;19843;51.040;13.782;2023-05-21T05:01:52;11.57;;;7.20;;
33505;SDS011;19843;51.040;13.782;2023-05-21T05:04:20;11.52;;;8.30;;
33505;SDS011;19843;51.040;13.782;2023-05-21T05:06:49;11.98;;;7.50;;
33505;SDS011;19843;51.040;13.782;2023-05-21T05:09:17;12.65;;;7.60;;
33505;SDS011;19843;51.040;13.782;2023-05-21T05:11:46;9.88;;;6.90;;
33505;SDS011;19843;51.040;13.782;2023-05-21T05:14:14;10.88;;;7.63;;
33505;SDS011;19843;51.040;13.782;2023-05-21T05:16:41;13.23;;;7.10;;
33505;SDS011;19843;51.040;13.782;2023-05-21T05:19:09;11.60;;;7.43;;
33505;SDS011;19843;51.040;13.782;2023-05-21T05:21:36;9.85;;;6.85;;
33505;SDS011;19843;51.040;13.782;2023-05-21T05:24:05;12.32;;;7.55;;
33505;SDS011;19843;51.040;13.782;2023-05-21T05:26:33;9.50;;;6.90;;
33505;SDS011;19843;51.040;13.782;2023-05-21T05:29:00;12.98;;;7.78;;
33505;SDS011;19843;51.040;13.782;2023-05-21T05:31:27;13.52;;;8.57;;
33505;SDS011;19843;51.040;13.782;2023-05-21T05:33:55;10.52;;;7.65;;
33505;SDS011;19843;51.040;13.782;2023-05-21T05:36:23;10.50;;;7.38;;
33505;SDS011;19843;51.040;13.782;2023-05-21T05:38:51;11.30;;;7.53;;
33505;SDS011;19843;51.040;13.782;2023-05-21T05:41:20;9.52;;;7.32;;
33505;SDS011;19843;51.040;13.782;2023-05-21T05:43:47;8.82;;;6.75;;
33505;SDS011;19843;51.040;13.782;2023-05-21T05:46:15;10.00;;;6.47;;
33505;SDS011;19843;51.040;13.782;2023-05-21T05:48:42;11.32;;;8.68;;
33505;SDS011;19843;51.040;13.782;2023-05-21T05:51:10;11.43;;;7.57;;
33505;SDS011;19843;51.040;13.782;2023-05-21T05:53:38;10.60;;;6.50;;
33505;SDS011;19843;51.040;13.782;2023-05-21T05:56:05;11.30;;;7.88;;
33505;SDS011;19843;51.040;13.782;2023-05-21T05:58:35;11.63;;;6.72;;
33505;SDS011;19843;51.040;13.782;2023-05-21T06:01:02;7.05;;;6.13;;
33505;SDS011;19843;51.040;13.782;2023-05-21T06:03:30;9.38;;;6.45;;
33505;SDS011;19843;51.040;13.782;2023-05-21T06:05:58;11.38;;;7.32;;
33505;SDS011;19843;51.040;13.782;2023-05-21T06:08:25;9.88;;;6.95;;
33505;SDS011;19843;51.040;13.782;2023-05-21T06:10:53;9.18;;;6.65;;
33505;SDS011;19843;51.040;13.782;2023-05-21T06:13:20;7.35;;;6.00;;
33505;SDS011;19843;51.040;13.782;2023-05-21T06:15:49;10.13;;;7.30;;
33505;SDS011;19843;51.040;13.782;2023-05-21T06:18:16;7.65;;;6.25;;
33505;SDS011;19843;51.040;13.782;2023-05-21T06:20:44;9.45;;;6.88;;
33505;SDS011;19843;51.040;13.782;2023-05-21T06:23:11;9.93;;;5.93;;
33505;SDS011;19843;51.040;13.782;2023-05-21T06:25:39;11.02;;;6.95;;
33505;SDS011;19843;51.040;13.782;2023-05-21T06:28:06;12.68;;;6.90;;
33505;SDS011;19843;51.040;13.782;2023-05-21T06:30:34;10.43;;;7.03;;
33505;SDS011;19843;51.040;13.782;2023-05-21T06:33:02;9.55;;;6.47;;
33505;SDS011;19843;51.040;13.782;2023-05-21T06:35:30;9.95;;;7.05;;
33505;SDS011;19843;51.040;13.782;2023-05-21T06:38:00;9.82;;;6.18;;
33505;SDS011;19843;51.040;13.782;2023-05-21T06:40:27;9.95;;;6.40;;
33505;SDS011;19843;51.040;13.782;2023-05-21T06:42:55;9.18;;;6.97;;
33505;SDS011;19843;51.040;13.782;2023-05-21T06:45:24;9.70;;;6.18;;
33505;SDS011;19843;51.040;13.782;2023-05-21T06:47:52;8.88;;;6.57;;
33505;SDS011;19843;51.040;13.782;2023-05-21T06:50:21;9.50;;;5.30;;
33505;SDS011;19843;51.040;13.782;2023-05-21T06:52:49;6.95;;;5.47;;
33505;SDS011;19843;51.040;13.782;2023-05-21T06:55:17;8.70;;;6.60;;
33505;SDS011;19843;51.040;13.782;2023-05-21T06:57:44;7.18;;;5.55;;
33505;SDS011;19843;51.040;13.782;2023-05-21T07:00:12;8.38;;;6.00;;
33505;SDS011;19843;51.040;13.782;2023-05-21T07:02:40;9.48;;;6.72;;
33505;SDS011;19843;51.040;13.782;2023-05-21T07:05:08;7.72;;;5.85;;
33505;SDS011;19843;51.040;13.782;2023-05-21T07:07:37;10.75;;;6.75;;
33505;SDS011;19843;51.040;13.782;2023-05-21T07:10:05;9.23;;;5.80;;
33505;SDS011;19843;51.040;13.782;2023-05-21T07:12:33;8.52;;;5.60;;
33505;SDS011;19843;51.040;13.782;2023-05-21T07:15:00;9.65;;;5.95;;
33505;SDS011;19843;51.040;13.782;2023-05-21T07:17:28;8.82;;;5.97;;
33505;SDS011;19843;51.040;13.782;2023-05-21T07:19:56;10.27;;;7.07;;
33505;SDS011;19843;51.040;13.782;2023-05-21T07:22:23;8.98;;;6.35;;
33505;SDS011;19843;51.040;13.782;2023-05-21T07:24:54;8.80;;;6.40;;
33505;SDS011;19843;51.040;13.782;2023-05-21T07:27:22;7.72;;;6.20;;
33505;SDS011;19843;51.040;13.782;2023-05-21T07:29:51;8.63;;;6.72;;
33505;SDS011;19843;51.040;13.782;2023-05-21T07:32:19;7.55;;;5.45;;
33505;SDS011;19843;51.040;13.782;2023-05-21T07:34:46;9.00;;;6.25;;
33505;SDS011;19843;51.040;13.782;2023-05-21T07:37:14;8.18;;;5.85;;
33505;SDS011;19843;51.040;13.782;2023-05-21T07:39:41;9.05;;;6.65;;
33505;SDS011;19843;51.040;13.782;2023-05-21T07:42:10;9.23;;;6.35;;
33505;SDS011;19843;51.040;13.782;2023-05-21T07:44:38;6.30;;;4.95;;
33505;SDS011;19843;51.040;13.782;2023-05-21T07:47:05;8.30;;;6.45;;
33505;SDS011;19843;51.040;13.782;2023-05-21T07:49:33;10.45;;;7.50;;
33505;SDS011;19843;51.040;13.782;2023-05-21T07:52:00;10.90;;;6.75;;
33505;SDS011;19843;51.040;13.782;2023-05-21T07:54:28;11.98;;;6.90;;
33505;SDS011;19843;51.040;13.782;2023-05-21T07:56:55;9.88;;;6.60;;
33505;SDS011;19843;51.040;13.782;2023-05-21T07:59:24;8.95;;;6.30;;
33505;SDS011;19843;51.040;13.782;2023-05-21T08:01:52;7.72;;;5.75;;
33505;SDS011;19843;51.040;13.782;2023-05-21T08:04:19;8.23;;;6.72;;
33505;SDS011;19843;51.040;13.782;2023-05-21T08:06:47;8.05;;;5.72;;
33505;SDS011;19843;51.040;13.782;2023-05-21T08:09:14;9.30;;;6.95;;
33505;SDS011;19843;51.040;13.782;2023-05-21T08:11:43;8.82;;;6.63;;
33505;SDS011;19843;51.040;13.782;2023-05-21T08:14:11;9.65;;;6.13;;
33505;SDS011;19843;51.040;13.782;2023-05-21T08:16:40;8.40;;;5.80;;
33505;SDS011;19843;51.040;13.782;2023-05-21T08:19:07;7.03;;;5.38;;
33505;SDS011;19843;51.040;13.782;2023-05-21T08:21:35;7.75;;;5.93;;
33505;SDS011;19843;51.040;13.782;2023-05-21T08:24:02;8.10;;;5.55;;
33505;SDS011;19843;51.040;13.782;2023-05-21T08:26:30;7.88;;;6.07;;
33505;SDS011;19843;51.040;13.782;2023-05-21T08:28:57;8.77;;;5.60;;
33505;SDS011;19843;51.040;13.782;2023-05-21T08:31:25;10.52;;;7.07;;
33505;SDS011;19843;51.040;13.782;2023-05-21T08:33:54;8.25;;;6.53;;
33505;SDS011;19843;51.040;13.782;2023-05-21T08:36:22;9.60;;;6.35;;
33505;SDS011;19843;51.040;13.782;2023-05-21T08:46:08;7.63;;;6.13;;
33505;SDS011;19843;51.040;13.782;2023-05-21T08:48:37;7.50;;;5.45;;
33505;SDS011;19843;51.040;13.782;2023-05-21T08:51:06;7.50;;;5.90;;
33505;SDS011;19843;51.040;13.782;2023-05-21T08:53:33;9.27;;;6.43;;
33505;SDS011;19843;51.040;13.782;2023-05-21T08:56:00;8.10;;;5.93;;
33505;SDS011;19843;51.040;13.782;2023-05-21T08:58:29;7.55;;;5.97;;
33505;SDS011;19843;51.040;13.782;2023-05-21T09:00:58;8.90;;;6.07;;
33505;SDS011;19843;51.040;13.782;2023-05-21T09:03:26;8.73;;;5.40;;
33505;SDS011;19843;51.040;13.782;2023-05-21T09:05:56;7.18;;;5.57;;
33505;SDS011;19843;51.040;13.782;2023-05-21T09:08:29;7.13;;;5.70;;
33505;SDS011;19843;51.040;13.782;2023-05-21T09:10:59;8.52;;;5.93;;
33505;SDS011;19843;51.040;13.782;2023-05-21T09:13:27;10.75;;;6.18;;
33505;SDS011;19843;51.040;13.782;2023-05-21T09:15:57;8.82;;;6.45;;
33505;SDS011;19843;51.040;13.782;2023-05-21T09:18:25;9.05;;;5.68;;
33505;SDS011;19843;51.040;13.782;2023-05-21T09:20:52;9.77;;;6.00;;
33505;SDS011;19843;51.040;13.782;2023-05-21T09:23:21;8.75;;;6.43;;
33505;SDS011;19843;51.040;13.782;2023-05-21T09:25:50;7.50;;;5.68;;
33505;SDS011;19843;51.040;13.782;2023-05-21T09:28:18;7.88;;;5.97;;
33505;SDS011;19843;51.040;13.782;2023-05-21T09:30:46;6.95;;;5.72;;
33505;SDS011;19843;51.040;13.782;2023-05-21T09:33:23;7.88;;;6.00;;
33505;SDS011;19843;51.040;13.782;2023-05-21T09:35:51;7.07;;;5.35;;
33505;SDS011;19843;51.040;13.782;2023-05-21T09:38:20;6.63;;;5.15;;
33505;SDS011;19843;51.040;13.782;2023-05-21T09:40:48;8.82;;;6.38;;
33505;SDS011;19843;51.040;13.782;2023-05-21T09:43:17;10.82;;;6.80;;
33505;SDS011;19843;51.040;13.782;2023-05-21T09:45:50;8.23;;;6.15;;
33505;SDS011;19843;51.040;13.782;2023-05-21T09:48:31;7.53;;;6.38;;
33505;SDS011;19843;51.040;13.782;2023-05-21T09:51:07;8.43;;;6.13;;
33505;SDS011;19843;51.040;13.782;2023-05-21T09:53:36;7.03;;;5.40;;
33505;SDS011;19843;51.040;13.782;2023-05-21T09:56:08;7.60;;;5.97;;
33505;SDS011;19843;51.040;13.782;2023-05-21T09:58:38;9.77;;;5.45;;
33505;SDS011;19843;51.040;13.782;2023-05-21T10:01:05;8.45;;;5.72;;
33505;SDS011;19843;51.040;13.782;2023-05-21T10:03:35;8.75;;;5.82;;
33505;SDS011;19843;51.040;13.782;2023-05-21T10:06:06;10.00;;;6.22;;
33505;SDS011;19843;51.040;13.782;2023-05-21T10:08:35;7.47;;;5.85;;
33505;SDS011;19843;51.040;13.782;2023-05-21T10:11:08;7.00;;;6.30;;
33505;SDS011;19843;51.040;13.782;2023-05-21T10:13:42;8.07;;;6.00;;
33505;SDS011;19843;51.040;13.782;2023-05-21T10:16:11;7.20;;;5.70;;
33505;SDS011;19843;51.040;13.782;2023-05-21T10:18:39;7.78;;;6.22;;
33505;SDS011;19843;51.040;13.782;2023-05-21T10:21:08;7.93;;;5.97;;
33505;SDS011;19843;51.040;13.782;2023-05-21T10:23:36;9.23;;;6.43;;
33505;SDS011;19843;51.040;13.782;2023-05-21T10:26:04;8.77;;;6.20;;
33505;SDS011;19843;51.040;13.782;2023-05-21T10:28:34;8.27;;;5.72;;
33505;SDS011;19843;51.040;13.782;2023-05-21T10:31:04;7.90;;;6.05;;
33505;SDS011;19843;51.040;13.782;2023-05-21T10:33:32;10.90;;;6.05;;
33505;SDS011;19843;51.040;13.782;2023-05-21T10:36:01;7.47;;;6.65;;
33505;SDS011;19843;51.040;13.782;2023-05-21T10:38:29;9.15;;;7.25;;
33505;SDS011;19843;51.040;13.782;2023-05-21T10:40:58;8.27;;;6.75;;
33505;SDS011;19843;51.040;13.782;2023-05-21T10:43:46;9.05;;;6.30;;
33505;SDS011;19843;51.040;13.782;2023-05-21T10:46:25;10.27;;;6.35;;
33505;SDS011;19843;51.040;13.782;2023-05-21T10:49:15;8.38;;;6.47;;
33505;SDS011;19843;51.040;13.782;2023-05-21T10:51:54;7.40;;;5.63;;
33505;SDS011;19843;51.040;13.782;2023-05-21T11:00:56;6.05;;;4.60;;
33505;SDS011;19843;51.040;13.782;2023-05-21T11:03:26;4.60;;;4.05;;
33505;SDS011;19843;51.040;13.782;2023-05-21T11:05:57;8.18;;;5.93;;
33505;SDS011;19843;51.040;13.782;2023-05-21T11:08:29;5.40;;;4.13;;
33505;SDS011;19843;51.040;13.782;2023-05-21T11:11:02;4.85;;;3.95;;
33505;SDS011;19843;51.040;13.782;2023-05-21T11:13:43;10.05;;;4.45;;
33505;SDS011;19843;51.040;13.782;2023-05-21T11:16:14;6.40;;;3.63;;
33505;SDS011;19843;51.040;13.782;2023-05-21T11:19:01;5.70;;;3.65;;
33505;SDS011;19843;51.040;13.782;2023-05-21T11:21:30;4.03;;;3.67;;
33505;SDS011;19843;51.040;13.782;2023-05-21T11:24:02;5.47;;;4.05;;
33505;SDS011;19843;51.040;13.782;2023-05-21T11:29:39;4.55;;;3.17;;
33505;SDS011;19843;51.040;13.782;2023-05-21T11:32:11;4.90;;;3.50;;
33505;SDS011;19843;51.040;13.782;2023-05-21T11:34:44;3.88;;;3.45;;
33505;SDS011;19843;51.040;13.782;2023-05-21T11:37:22;5.05;;;3.60;;
33505;SDS011;19843;51.040;13.782;2023-05-21T11:39:52;4.82;;;3.72;;
33505;SDS011;19843;51.040;13.782;2023-05-21T11:42:26;6.93;;;4.10;;
33505;SDS011;19843;51.040;13.782;2023-05-21T11:44:58;4.95;;;4.03;;
33505;SDS011;19843;51.040;13.782;2023-05-21T11:47:28;5.00;;;4.15;;
33505;SDS011;19843;51.040;13.782;2023-05-21T11:49:59;7.03;;;4.22;;
33505;SDS011;19843;51.040;13.782;2023-05-21T11:52:27;6.25;;;4.55;;
33505;SDS011;19843;51.040;13.782;2023-05-21T11:54:55;4.95;;;4.32;;
33505;SDS011;19843;51.040;13.782;2023-05-21T11:57:25;6.78;;;5.03;;
33505;SDS011;19843;51.040;13.782;2023-05-21T11:59:56;6.57;;;4.90;;
33505;SDS011;19843;51.040;13.782;2023-05-21T12:02:25;6.82;;;4.63;;
33505;SDS011;19843;51.040;13.782;2023-05-21T12:04:53;7.35;;;5.70;;
33505;SDS011;19843;51.040;13.782;2023-05-21T12:07:26;7.32;;;4.88;;
33505;SDS011;19843;51.040;13.782;2023-05-21T12:09:56;6.38;;;5.78;;
33505;SDS011;19843;51.040;13.782;2023-05-21T12:12:24;6.30;;;5.55;;
33505;SDS011;19843;51.040;13.782;2023-05-21T12:15:07;11.48;;;6.82;;
33505;SDS011;19843;51.040;13.782;2023-05-21T12:17:37;9.43;;;6.03;;
33505;SDS011;19843;51.040;13.782;2023-05-21T12:20:05;9.18;;;5.95;;
33505;SDS011;19843;51.040;13.782;2023-05-21T12:22:40;10.00;;;6.28;;
33505;SDS011;19843;51.040;13.782;2023-05-21T12:25:09;8.43;;;5.38;;
33505;SDS011;19843;51.040;13.782;2023-05-21T12:27:37;7.38;;;5.78;;
33505;SDS011;19843;51.040;13.782;2023-05-21T12:30:07;6.25;;;5.00;;
33505;SDS011;19843;51.040;13.782;2023-05-21T12:32:36;6.70;;;5.45;;
33505;SDS011;19843;51.040;13.782;2023-05-21T12:35:08;7.40;;;5.18;;
33505;SDS011;19843;51.040;13.782;2023-05-21T12:37:40;7.35;;;5.80;;
33505;SDS011;19843;51.040;13.782;2023-05-21T12:40:12;8.25;;;5.57;;
33505;SDS011;19843;51.040;13.782;2023-05-21T12:42:40;6.78;;;5.05;;
33505;SDS011;19843;51.040;13.782;2023-05-21T12:45:10;8.48;;;5.95;;
33505;SDS011;19843;51.040;13.782;2023-05-21T12:47:37;7.47;;;6.03;;
33505;SDS011;19843;51.040;13.782;2023-05-21T12:50:07;8.75;;;5.05;;
33505;SDS011;19843;51.040;13.782;2023-05-21T12:52:38;8.02;;;6.20;;
33505;SDS011;19843;51.040;13.782;2023-05-21T12:55:11;7.88;;;5.63;;
33505;SDS011;19843;51.040;13.782;2023-05-21T12:57:39;7.47;;;5.25;;
33505;SDS011;19843;51.040;13.782;2023-05-21T13:00:09;13.93;;;6.50;;
33505;SDS011;19843;51.040;13.782;2023-05-21T13:02:37;8.40;;;6.53;;
33505;SDS011;19843;51.040;13.782;2023-05-21T13:05:07;6.78;;;5.75;;
33505;SDS011;19843;51.040;13.782;2023-05-21T13:07:41;8.18;;;5.93;;
33505;SDS011;19843;51.040;13.782;2023-05-21T13:10:14;7.95;;;6.35;;
33505;SDS011;19843;51.040;13.782;2023-05-21T13:12:45;8.70;;;5.90;;
33505;SDS011;19843;51.040;13.782;2023-05-21T13:15:17;7.78;;;6.53;;
33505;SDS011;19843;51.040;13.782;2023-05-21T13:17:48;9.35;;;6.90;;
33505;SDS011;19843;51.040;13.782;2023-05-21T13:20:18;7.28;;;6.20;;
33505;SDS011;19843;51.040;13.782;2023-05-21T13:22:48;8.32;;;6.32;;
33505;SDS011;19843;51.040;13.782;2023-05-21T13:25:18;7.47;;;5.50;;
33505;SDS011;19843;51.040;13.782;2023-05-21T13:27:49;8.40;;;6.53;;
33505;SDS011;19843;51.040;13.782;2023-05-21T13:30:18;6.95;;;6.25;;
33505;SDS011;19843;51.040;13.782;2023-05-21T13:32:47;6.30;;;5.22;;
33505;SDS011;19843;51.040;13.782;2023-05-21T13:35:14;7.75;;;5.95;;
33505;SDS011;19843;51.040;13.782;2023-05-21T13:37:44;6.53;;;5.53;;
33505;SDS011;19843;51.040;13.782;2023-05-21T13:40:12;8.45;;;6.20;;
33505;SDS011;19843;51.040;13.782;2023-05-21T13:42:43;8.52;;;6.03;;
33505;SDS011;19843;51.040;13.782;2023-05-21T13:45:12;7.85;;;5.82;;
33505;SDS011;19843;51.040;13.782;2023-05-21T13:47:41;9.50;;;7.30;;
33505;SDS011;19843;51.040;13.782;2023-05-21T13:50:09;8.20;;;6.88;;
33505;SDS011;19843;51.040;13.782;2023-05-21T13:52:37;7.97;;;6.65;;
33505;SDS011;19843;51.040;13.782;2023-05-21T13:55:05;8.15;;;6.07;;
33505;SDS011;19843;51.040;13.782;2023-05-21T13:57:33;5.38;;;4.55;;
33505;SDS011;19843;51.040;13.782;2023-05-21T14:00:02;5.15;;;4.25;;
33505;SDS011;19843;51.040;13.782;2023-05-21T14:02:31;6.25;;;4.32;;
33505;SDS011;19843;51.040;13.782;2023-05-21T14:04:59;5.53;;;3.78;;
33505;SDS011;19843;51.040;13.782;2023-05-21T14:07:27;7.82;;;4.32;;
33505;SDS011;19843;51.040;13.782;2023-05-21T14:09:54;5.10;;;3.90;;
33505;SDS011;19843;51.040;13.782;2023-05-21T14:12:22;5.18;;;4.28;;
33505;SDS011;19843;51.040;13.782;2023-05-21T14:17:52;4.57;;;3.85;;
33505;SDS011;19843;51.040;13.782;2023-05-21T14:20:20;6.22;;;4.68;;
33505;SDS011;19843;51.040;13.782;2023-05-21T14:22:58;14.73;;;5.93;;
33505;SDS011;19843;51.040;13.782;2023-05-21T14:25:25;7.82;;;5.75;;
33505;SDS011;19843;51.040;13.782;2023-05-21T14:27:53;6.57;;;5.07;;
33505;SDS011;19843;51.040;13.782;2023-05-21T14:30:22;5.50;;;4.53;;
33505;SDS011;19843;51.040;13.782;2023-05-21T14:32:49;6.47;;;4.43;;
33505;SDS011;19843;51.040;13.782;2023-05-21T14:35:17;6.72;;;4.75;;
33505;SDS011;19843;51.040;13.782;2023-05-21T14:37:44;7.57;;;4.80;;
33505;SDS011;19843;51.040;13.782;2023-05-21T14:40:15;7.90;;;4.63;;
33505;SDS011;19843;51.040;13.782;2023-05-21T14:42:42;5.20;;;4.13;;
33505;SDS011;19843;51.040;13.782;2023-05-21T14:45:10;5.13;;;3.83;;
33505;SDS011;19843;51.040;13.782;2023-05-21T14:47:46;4.00;;;3.28;;
33505;SDS011;19843;51.040;13.782;2023-05-21T14:50:14;3.47;;;3.13;;
33505;SDS011;19843;51.040;13.782;2023-05-21T14:52:42;3.30;;;2.63;;
33505;SDS011;19843;51.040;13.782;2023-05-21T14:55:10;4.38;;;3.67;;
33505;SDS011;19843;51.040;13.782;2023-05-21T14:57:39;4.75;;;4.22;;
33505;SDS011;19843;51.040;13.782;2023-05-21T15:00:07;3.58;;;3.15;;